sensor_id;sensor_type;location;lat;lon;timestamp;P1;durP1;ratioP1;P2;durP2;ratioP2
26319;SDS011;14024;52.226;5.200;2023-09-19T00:00:44;11.88;;;2.63;;
26319;SDS011;14024;52.226;5.200;2023-09-19T00:03:14;12.27;;;2.72;;
26319;SDS011;14024;52.226;5.200;2023-09-19T00:05:39;12.77;;;2.67;;
26319;SDS011;14024;52.226;5.200;2023-09-19T00:08:08;15.68;;;2.65;;
26319;SDS011;14024;52.226;5.200;2023-09-19T00:10:33;15.15;;;3.53;;
26319;SDS011;14024;52.226;5.200;2023-09-19T00:13:03;8.40;;;2.63;;
26319;SDS011;14024;52.226;5.200;2023-09-19T00:15:39;16.05;;;3.15;;
26319;SDS011;14024;52.226;5.200;2023-09-19T00:18:06;8.93;;;2.45;;
26319;SDS011;14024;52.226;5.200;2023-09-19T00:20:35;7.00;;;2.20;;
26319;SDS011;14024;52.226;5.200;2023-09-19T00:23:01;11.13;;;3.25;;
26319;SDS011;14024;52.226;5.200;2023-09-19T00:25:34;11.82;;;2.90;;
26319;SDS011;14024;52.226;5.200;2023-09-19T00:28:02;13.52;;;2.75;;
26319;SDS011;14024;52.226;5.200;2023-09-19T00:30:28;14.80;;;2.92;;
26319;SDS011;14024;52.226;5.200;2023-09-19T00:32:53;15.05;;;2.95;;
26319;SDS011;14024;52.226;5.200;2023-09-19T00:35:22;9.60;;;2.47;;
26319;SDS011;14024;52.226;5.200;2023-09-19T00:37:52;10.82;;;2.88;;
26319;SDS011;14024;52.226;5.200;2023-09-19T00:40:18;12.45;;;3.03;;
26319;SDS011;14024;52.226;5.200;2023-09-19T00:42:46;11.52;;;2.45;;
26319;SDS011;14024;52.226;5.200;2023-09-19T00:45:13;12.13;;;2.97;;
26319;SDS011;14024;52.226;5.200;2023-09-19T00:47:49;12.65;;;3.35;;
26319;SDS011;14024;52.226;5.200;2023-09-19T00:50:18;11.20;;;2.63;;
26319;SDS011;14024;52.226;5.200;2023-09-19T00:52:45;11.73;;;2.67;;
26319;SDS011;14024;52.226;5.200;2023-09-19T00:55:12;10.48;;;2.90;;
26319;SDS011;14024;52.226;5.200;2023-09-19T00:57:39;8.43;;;2.38;;
26319;SDS011;14024;52.226;5.200;2023-09-19T01:00:08;11.20;;;2.85;;
26319;SDS011;14024;52.226;5.200;2023-09-19T01:02:43;8.43;;;2.40;;
26319;SDS011;14024;52.226;5.200;2023-09-19T01:05:09;15.25;;;2.88;;
26319;SDS011;14024;52.226;5.200;2023-09-19T01:07:40;5.65;;;2.40;;
26319;SDS011;14024;52.226;5.200;2023-09-19T01:10:07;12.73;;;2.40;;
26319;SDS011;14024;52.226;5.200;2023-09-19T01:15:28;10.90;;;2.50;;
26319;SDS011;14024;52.226;5.200;2023-09-19T01:21:00;14.98;;;2.92;;
26319;SDS011;14024;52.226;5.200;2023-09-19T01:32:05;8.20;;;2.70;;
26319;SDS011;14024;52.226;5.200;2023-09-19T01:34:44;10.55;;;3.17;;
26319;SDS011;14024;52.226;5.200;2023-09-19T01:37:14;9.00;;;2.83;;
26319;SDS011;14024;52.226;5.200;2023-09-19T01:39:44;11.27;;;2.65;;
26319;SDS011;14024;52.226;5.200;2023-09-19T01:42:12;11.65;;;2.67;;
26319;SDS011;14024;52.226;5.200;2023-09-19T01:45:17;18.75;;;3.35;;
26319;SDS011;14024;52.226;5.200;2023-09-19T01:47:51;11.50;;;2.63;;
26319;SDS011;14024;52.226;5.200;2023-09-19T01:50:30;9.30;;;2.42;;
26319;SDS011;14024;52.226;5.200;2023-09-19T01:56:01;12.75;;;3.28;;
26319;SDS011;14024;52.226;5.200;2023-09-19T01:58:41;14.93;;;2.50;;
26319;SDS011;14024;52.226;5.200;2023-09-19T02:01:12;16.25;;;3.58;;
26319;SDS011;14024;52.226;5.200;2023-09-19T02:03:42;11.43;;;2.55;;
26319;SDS011;14024;52.226;5.200;2023-09-19T02:06:13;11.65;;;3.08;;
26319;SDS011;14024;52.226;5.200;2023-09-19T02:08:39;6.45;;;2.83;;
26319;SDS011;14024;52.226;5.200;2023-09-19T02:11:06;17.13;;;2.97;;
26319;SDS011;14024;52.226;5.200;2023-09-19T02:13:32;22.92;;;3.50;;
26319;SDS011;14024;52.226;5.200;2023-09-19T02:16:00;11.32;;;2.42;;
26319;SDS011;14024;52.226;5.200;2023-09-19T02:18:25;10.02;;;3.00;;
26319;SDS011;14024;52.226;5.200;2023-09-19T02:20:53;13.50;;;2.72;;
26319;SDS011;14024;52.226;5.200;2023-09-19T02:23:19;11.05;;;2.85;;
26319;SDS011;14024;52.226;5.200;2023-09-19T02:25:51;11.10;;;2.80;;
26319;SDS011;14024;52.226;5.200;2023-09-19T02:28:17;14.45;;;3.03;;
26319;SDS011;14024;52.226;5.200;2023-09-19T02:30:42;10.00;;;2.67;;
26319;SDS011;14024;52.226;5.200;2023-09-19T02:33:08;8.38;;;2.92;;
26319;SDS011;14024;52.226;5.200;2023-09-19T02:35:33;12.23;;;2.45;;
26319;SDS011;14024;52.226;5.200;2023-09-19T02:38:01;12.60;;;2.85;;
26319;SDS011;14024;52.226;5.200;2023-09-19T02:40:27;16.90;;;3.28;;
26319;SDS011;14024;52.226;5.200;2023-09-19T02:42:54;16.05;;;2.95;;
26319;SDS011;14024;52.226;5.200;2023-09-19T02:45:20;16.55;;;3.20;;
26319;SDS011;14024;52.226;5.200;2023-09-19T02:47:46;10.20;;;2.67;;
26319;SDS011;14024;52.226;5.200;2023-09-19T02:50:12;11.30;;;3.25;;
26319;SDS011;14024;52.226;5.200;2023-09-19T02:52:43;18.17;;;3.78;;
26319;SDS011;14024;52.226;5.200;2023-09-19T02:55:12;12.77;;;2.70;;
26319;SDS011;14024;52.226;5.200;2023-09-19T02:57:44;11.73;;;3.25;;
26319;SDS011;14024;52.226;5.200;2023-09-19T03:00:14;13.63;;;3.10;;
26319;SDS011;14024;52.226;5.200;2023-09-19T03:02:40;14.55;;;2.97;;
26319;SDS011;14024;52.226;5.200;2023-09-19T03:05:07;12.55;;;3.08;;
26319;SDS011;14024;52.226;5.200;2023-09-19T03:07:36;13.98;;;2.83;;
26319;SDS011;14024;52.226;5.200;2023-09-19T03:10:03;18.92;;;3.67;;
26319;SDS011;14024;52.226;5.200;2023-09-19T03:12:30;17.70;;;3.10;;
26319;SDS011;14024;52.226;5.200;2023-09-19T03:14:56;14.93;;;3.15;;
26319;SDS011;14024;52.226;5.200;2023-09-19T03:17:22;12.73;;;2.83;;
26319;SDS011;14024;52.226;5.200;2023-09-19T03:19:47;18.45;;;3.72;;
26319;SDS011;14024;52.226;5.200;2023-09-19T03:22:13;14.05;;;3.10;;
26319;SDS011;14024;52.226;5.200;2023-09-19T03:24:39;12.82;;;2.88;;
26319;SDS011;14024;52.226;5.200;2023-09-19T03:27:04;13.35;;;2.97;;
26319;SDS011;14024;52.226;5.200;2023-09-19T03:29:30;20.73;;;3.47;;
26319;SDS011;14024;52.226;5.200;2023-09-19T03:31:55;15.35;;;3.00;;
26319;SDS011;14024;52.226;5.200;2023-09-19T03:34:20;13.15;;;2.92;;
26319;SDS011;14024;52.226;5.200;2023-09-19T03:36:46;16.42;;;3.03;;
26319;SDS011;14024;52.226;5.200;2023-09-19T03:39:11;18.08;;;3.25;;
26319;SDS011;14024;52.226;5.200;2023-09-19T03:41:38;15.05;;;3.28;;
26319;SDS011;14024;52.226;5.200;2023-09-19T03:44:03;15.18;;;3.05;;
26319;SDS011;14024;52.226;5.200;2023-09-19T03:46:29;19.35;;;4.03;;
26319;SDS011;14024;52.226;5.200;2023-09-19T03:48:55;17.83;;;3.75;;
26319;SDS011;14024;52.226;5.200;2023-09-19T03:51:20;18.88;;;3.35;;
26319;SDS011;14024;52.226;5.200;2023-09-19T03:53:46;15.32;;;3.13;;
26319;SDS011;14024;52.226;5.200;2023-09-19T03:56:14;17.88;;;3.25;;
26319;SDS011;14024;52.226;5.200;2023-09-19T03:58:40;14.38;;;3.22;;
26319;SDS011;14024;52.226;5.200;2023-09-19T04:01:05;13.07;;;3.15;;
26319;SDS011;14024;52.226;5.200;2023-09-19T04:03:34;17.88;;;3.28;;
26319;SDS011;14024;52.226;5.200;2023-09-19T04:06:10;17.63;;;3.92;;
26319;SDS011;14024;52.226;5.200;2023-09-19T04:08:37;18.92;;;4.15;;
26319;SDS011;14024;52.226;5.200;2023-09-19T04:11:03;15.15;;;3.25;;
26319;SDS011;14024;52.226;5.200;2023-09-19T04:13:28;12.27;;;3.25;;
26319;SDS011;14024;52.226;5.200;2023-09-19T04:15:53;14.07;;;3.42;;
26319;SDS011;14024;52.226;5.200;2023-09-19T04:18:19;14.13;;;3.80;;
26319;SDS011;14024;52.226;5.200;2023-09-19T04:20:52;14.60;;;3.67;;
26319;SDS011;14024;52.226;5.200;2023-09-19T04:23:18;13.32;;;3.22;;
26319;SDS011;14024;52.226;5.200;2023-09-19T04:25:49;20.02;;;3.47;;
26319;SDS011;14024;52.226;5.200;2023-09-19T04:28:15;12.77;;;3.40;;
26319;SDS011;14024;52.226;5.200;2023-09-19T04:30:40;20.83;;;3.78;;
26319;SDS011;14024;52.226;5.200;2023-09-19T04:33:06;15.27;;;3.83;;
26319;SDS011;14024;52.226;5.200;2023-09-19T04:35:32;16.00;;;3.25;;
26319;SDS011;14024;52.226;5.200;2023-09-19T04:37:57;14.77;;;3.13;;
26319;SDS011;14024;52.226;5.200;2023-09-19T04:40:23;22.55;;;3.90;;
26319;SDS011;14024;52.226;5.200;2023-09-19T04:42:54;20.20;;;4.07;;
26319;SDS011;14024;52.226;5.200;2023-09-19T04:45:23;11.68;;;3.10;;
26319;SDS011;14024;52.226;5.200;2023-09-19T04:47:54;18.95;;;2.97;;
26319;SDS011;14024;52.226;5.200;2023-09-19T04:50:21;21.92;;;3.50;;
26319;SDS011;14024;52.226;5.200;2023-09-19T04:52:51;21.73;;;4.68;;
26319;SDS011;14024;52.226;5.200;2023-09-19T04:55:16;32.50;;;4.00;;
26319;SDS011;14024;52.226;5.200;2023-09-19T04:57:49;19.73;;;3.78;;
26319;SDS011;14024;52.226;5.200;2023-09-19T05:00:19;20.45;;;3.80;;
26319;SDS011;14024;52.226;5.200;2023-09-19T05:02:49;18.15;;;3.30;;
26319;SDS011;14024;52.226;5.200;2023-09-19T05:05:16;13.57;;;3.45;;
26319;SDS011;14024;52.226;5.200;2023-09-19T05:07:42;12.07;;;3.10;;
26319;SDS011;14024;52.226;5.200;2023-09-19T05:10:09;16.55;;;3.40;;
26319;SDS011;14024;52.226;5.200;2023-09-19T05:12:35;14.13;;;3.35;;
26319;SDS011;14024;52.226;5.200;2023-09-19T05:15:04;18.20;;;3.08;;
26319;SDS011;14024;52.226;5.200;2023-09-19T05:17:31;15.88;;;3.25;;
26319;SDS011;14024;52.226;5.200;2023-09-19T05:19:57;18.67;;;3.13;;
26319;SDS011;14024;52.226;5.200;2023-09-19T05:22:28;17.83;;;3.28;;
26319;SDS011;14024;52.226;5.200;2023-09-19T05:24:58;10.43;;;2.63;;
26319;SDS011;14024;52.226;5.200;2023-09-19T05:27:24;11.80;;;3.42;;
26319;SDS011;14024;52.226;5.200;2023-09-19T05:29:51;16.83;;;3.38;;
26319;SDS011;14024;52.226;5.200;2023-09-19T05:32:18;9.60;;;3.28;;
26319;SDS011;14024;52.226;5.200;2023-09-19T05:34:44;17.92;;;3.47;;
26319;SDS011;14024;52.226;5.200;2023-09-19T05:37:12;19.15;;;3.47;;
26319;SDS011;14024;52.226;5.200;2023-09-19T05:39:39;16.73;;;3.83;;
26319;SDS011;14024;52.226;5.200;2023-09-19T05:42:04;25.70;;;3.78;;
26319;SDS011;14024;52.226;5.200;2023-09-19T05:44:30;16.98;;;3.70;;
26319;SDS011;14024;52.226;5.200;2023-09-19T05:46:57;20.58;;;3.80;;
26319;SDS011;14024;52.226;5.200;2023-09-19T05:49:22;22.95;;;3.55;;
26319;SDS011;14024;52.226;5.200;2023-09-19T05:51:49;17.88;;;3.38;;
26319;SDS011;14024;52.226;5.200;2023-09-19T05:54:18;18.83;;;3.25;;
26319;SDS011;14024;52.226;5.200;2023-09-19T05:56:45;16.85;;;3.20;;
26319;SDS011;14024;52.226;5.200;2023-09-19T05:59:13;16.48;;;3.15;;
26319;SDS011;14024;52.226;5.200;2023-09-19T06:01:42;18.90;;;3.63;;
26319;SDS011;14024;52.226;5.200;2023-09-19T06:04:09;14.10;;;3.35;;
26319;SDS011;14024;52.226;5.200;2023-09-19T06:06:34;12.30;;;3.38;;
26319;SDS011;14024;52.226;5.200;2023-09-19T06:09:06;12.55;;;3.25;;
26319;SDS011;14024;52.226;5.200;2023-09-19T06:11:34;14.15;;;3.50;;
26319;SDS011;14024;52.226;5.200;2023-09-19T06:14:01;20.58;;;4.10;;
26319;SDS011;14024;52.226;5.200;2023-09-19T06:16:30;18.27;;;3.90;;
26319;SDS011;14024;52.226;5.200;2023-09-19T06:18:57;17.30;;;3.50;;
26319;SDS011;14024;52.226;5.200;2023-09-19T06:21:24;16.90;;;3.17;;
26319;SDS011;14024;52.226;5.200;2023-09-19T06:23:51;13.52;;;3.55;;
26319;SDS011;14024;52.226;5.200;2023-09-19T06:26:17;16.85;;;3.88;;
26319;SDS011;14024;52.226;5.200;2023-09-19T06:28:44;27.02;;;4.45;;
26319;SDS011;14024;52.226;5.200;2023-09-19T06:31:10;19.63;;;4.40;;
26319;SDS011;14024;52.226;5.200;2023-09-19T06:33:41;14.98;;;3.45;;
26319;SDS011;14024;52.226;5.200;2023-09-19T06:36:08;13.40;;;3.58;;
26319;SDS011;14024;52.226;5.200;2023-09-19T06:38:33;16.92;;;4.05;;
26319;SDS011;14024;52.226;5.200;2023-09-19T06:41:02;21.92;;;3.78;;
26319;SDS011;14024;52.226;5.200;2023-09-19T06:43:32;20.92;;;3.70;;
26319;SDS011;14024;52.226;5.200;2023-09-19T06:46:01;20.73;;;3.70;;
26319;SDS011;14024;52.226;5.200;2023-09-19T06:48:27;21.30;;;4.05;;
26319;SDS011;14024;52.226;5.200;2023-09-19T06:50:54;20.48;;;3.83;;
26319;SDS011;14024;52.226;5.200;2023-09-19T06:53:20;20.02;;;4.03;;
26319;SDS011;14024;52.226;5.200;2023-09-19T06:55:47;20.17;;;3.70;;
26319;SDS011;14024;52.226;5.200;2023-09-19T06:58:13;20.38;;;3.92;;
26319;SDS011;14024;52.226;5.200;2023-09-19T07:00:38;14.75;;;3.72;;
26319;SDS011;14024;52.226;5.200;2023-09-19T07:03:05;17.67;;;4.18;;
26319;SDS011;14024;52.226;5.200;2023-09-19T07:05:36;17.45;;;3.80;;
26319;SDS011;14024;52.226;5.200;2023-09-19T07:08:04;18.13;;;3.70;;
26319;SDS011;14024;52.226;5.200;2023-09-19T07:10:31;17.27;;;3.72;;
26319;SDS011;14024;52.226;5.200;2023-09-19T07:13:02;21.15;;;4.32;;
26319;SDS011;14024;52.226;5.200;2023-09-19T07:15:32;13.93;;;3.88;;
26319;SDS011;14024;52.226;5.200;2023-09-19T07:18:00;15.27;;;4.65;;
26319;SDS011;14024;52.226;5.200;2023-09-19T07:20:26;20.98;;;4.03;;
26319;SDS011;14024;52.226;5.200;2023-09-19T07:22:56;19.35;;;4.03;;
26319;SDS011;14024;52.226;5.200;2023-09-19T07:25:26;16.70;;;3.80;;
26319;SDS011;14024;52.226;5.200;2023-09-19T07:27:54;20.05;;;3.75;;
26319;SDS011;14024;52.226;5.200;2023-09-19T07:30:20;18.17;;;4.25;;
26319;SDS011;14024;52.226;5.200;2023-09-19T07:32:46;20.15;;;3.50;;
26319;SDS011;14024;52.226;5.200;2023-09-19T07:35:12;16.45;;;4.57;;
26319;SDS011;14024;52.226;5.200;2023-09-19T07:37:37;11.90;;;3.85;;
26319;SDS011;14024;52.226;5.200;2023-09-19T07:40:03;20.00;;;3.67;;
26319;SDS011;14024;52.226;5.200;2023-09-19T07:42:35;21.33;;;3.80;;
26319;SDS011;14024;52.226;5.200;2023-09-19T07:45:05;23.63;;;4.03;;
26319;SDS011;14024;52.226;5.200;2023-09-19T07:47:34;15.48;;;3.75;;
26319;SDS011;14024;52.226;5.200;2023-09-19T07:50:01;18.85;;;3.78;;
26319;SDS011;14024;52.226;5.200;2023-09-19T07:52:28;20.42;;;4.35;;
26319;SDS011;14024;52.226;5.200;2023-09-19T07:54:54;24.10;;;3.80;;
26319;SDS011;14024;52.226;5.200;2023-09-19T07:57:19;19.23;;;3.58;;
26319;SDS011;14024;52.226;5.200;2023-09-19T07:59:47;20.85;;;4.28;;
26319;SDS011;14024;52.226;5.200;2023-09-19T08:02:14;21.08;;;4.22;;
26319;SDS011;14024;52.226;5.200;2023-09-19T08:04:43;23.67;;;4.07;;
26319;SDS011;14024;52.226;5.200;2023-09-19T08:07:10;13.98;;;3.80;;
26319;SDS011;14024;52.226;5.200;2023-09-19T08:09:37;20.27;;;4.20;;
26319;SDS011;14024;52.226;5.200;2023-09-19T08:12:04;17.20;;;4.22;;
26319;SDS011;14024;52.226;5.200;2023-09-19T08:14:30;18.75;;;4.57;;
26319;SDS011;14024;52.226;5.200;2023-09-19T08:16:57;16.73;;;4.43;;
26319;SDS011;14024;52.226;5.200;2023-09-19T08:19:26;12.15;;;4.30;;
26319;SDS011;14024;52.226;5.200;2023-09-19T08:21:56;22.35;;;4.32;;
26319;SDS011;14024;52.226;5.200;2023-09-19T08:24:28;24.90;;;4.18;;
26319;SDS011;14024;52.226;5.200;2023-09-19T08:26:54;21.55;;;4.72;;
26319;SDS011;14024;52.226;5.200;2023-09-19T08:29:21;24.35;;;5.25;;
26319;SDS011;14024;52.226;5.200;2023-09-19T08:31:52;17.40;;;4.40;;
26319;SDS011;14024;52.226;5.200;2023-09-19T08:34:21;21.10;;;4.10;;
26319;SDS011;14024;52.226;5.200;2023-09-19T08:36:50;14.52;;;3.53;;
26319;SDS011;14024;52.226;5.200;2023-09-19T08:39:26;29.30;;;4.93;;
26319;SDS011;14024;52.226;5.200;2023-09-19T08:42:00;21.38;;;4.05;;
26319;SDS011;14024;52.226;5.200;2023-09-19T08:44:29;23.20;;;5.30;;
26319;SDS011;14024;52.226;5.200;2023-09-19T08:46:56;19.25;;;4.28;;
26319;SDS011;14024;52.226;5.200;2023-09-19T08:52:25;27.13;;;5.25;;
26319;SDS011;14024;52.226;5.200;2023-09-19T08:54:53;16.95;;;3.80;;
26319;SDS011;14024;52.226;5.200;2023-09-19T08:57:30;26.15;;;4.47;;
26319;SDS011;14024;52.226;5.200;2023-09-19T09:00:00;21.45;;;4.68;;
26319;SDS011;14024;52.226;5.200;2023-09-19T09:02:30;17.35;;;4.22;;
26319;SDS011;14024;52.226;5.200;2023-09-19T09:04:59;14.38;;;3.70;;
26319;SDS011;14024;52.226;5.200;2023-09-19T09:07:25;18.58;;;4.25;;
26319;SDS011;14024;52.226;5.200;2023-09-19T09:09:53;18.92;;;3.95;;
26319;SDS011;14024;52.226;5.200;2023-09-19T09:12:20;19.92;;;4.18;;
26319;SDS011;14024;52.226;5.200;2023-09-19T09:14:47;17.55;;;3.88;;
26319;SDS011;14024;52.226;5.200;2023-09-19T09:17:15;26.98;;;4.65;;
26319;SDS011;14024;52.226;5.200;2023-09-19T09:19:47;21.83;;;4.70;;
26319;SDS011;14024;52.226;5.200;2023-09-19T09:22:12;29.95;;;4.53;;
26319;SDS011;14024;52.226;5.200;2023-09-19T09:24:50;23.15;;;4.25;;
26319;SDS011;14024;52.226;5.200;2023-09-19T09:27:22;24.10;;;3.97;;
26319;SDS011;14024;52.226;5.200;2023-09-19T09:29:49;17.63;;;4.00;;
26319;SDS011;14024;52.226;5.200;2023-09-19T09:32:34;17.17;;;4.00;;
26319;SDS011;14024;52.226;5.200;2023-09-19T09:35:02;20.10;;;4.72;;
26319;SDS011;14024;52.226;5.200;2023-09-19T09:37:39;20.20;;;5.28;;
26319;SDS011;14024;52.226;5.200;2023-09-19T09:40:08;19.10;;;3.60;;
26319;SDS011;14024;52.226;5.200;2023-09-19T09:42:39;24.17;;;4.35;;
26319;SDS011;14024;52.226;5.200;2023-09-19T09:45:12;22.05;;;3.60;;
26319;SDS011;14024;52.226;5.200;2023-09-19T09:48:00;21.98;;;4.60;;
26319;SDS011;14024;52.226;5.200;2023-09-19T09:50:57;21.05;;;3.67;;
26319;SDS011;14024;52.226;5.200;2023-09-19T09:53:28;21.85;;;4.20;;
26319;SDS011;14024;52.226;5.200;2023-09-19T09:56:05;23.27;;;4.90;;
26319;SDS011;14024;52.226;5.200;2023-09-19T09:58:32;20.00;;;4.25;;
26319;SDS011;14024;52.226;5.200;2023-09-19T10:01:04;14.60;;;3.40;;
26319;SDS011;14024;52.226;5.200;2023-09-19T10:03:41;23.92;;;3.72;;
26319;SDS011;14024;52.226;5.200;2023-09-19T10:06:15;13.30;;;3.40;;
26319;SDS011;14024;52.226;5.200;2023-09-19T10:08:58;21.42;;;4.10;;
26319;SDS011;14024;52.226;5.200;2023-09-19T10:11:43;24.08;;;4.30;;
26319;SDS011;14024;52.226;5.200;2023-09-19T10:14:11;17.65;;;3.72;;
26319;SDS011;14024;52.226;5.200;2023-09-19T10:16:47;17.88;;;3.63;;
26319;SDS011;14024;52.226;5.200;2023-09-19T10:19:55;14.80;;;3.42;;
26319;SDS011;14024;52.226;5.200;2023-09-19T10:22:22;13.25;;;3.22;;
26319;SDS011;14024;52.226;5.200;2023-09-19T10:24:50;14.30;;;3.63;;
26319;SDS011;14024;52.226;5.200;2023-09-19T10:27:19;18.23;;;4.15;;
26319;SDS011;14024;52.226;5.200;2023-09-19T10:29:48;18.75;;;3.17;;
26319;SDS011;14024;52.226;5.200;2023-09-19T10:32:20;18.35;;;3.58;;
26319;SDS011;14024;52.226;5.200;2023-09-19T10:34:50;13.52;;;3.55;;
26319;SDS011;14024;52.226;5.200;2023-09-19T10:37:20;12.50;;;3.30;;
26319;SDS011;14024;52.226;5.200;2023-09-19T10:39:50;16.83;;;3.90;;
26319;SDS011;14024;52.226;5.200;2023-09-19T10:42:20;12.60;;;3.13;;
26319;SDS011;14024;52.226;5.200;2023-09-19T10:44:51;13.75;;;2.83;;
26319;SDS011;14024;52.226;5.200;2023-09-19T10:47:20;17.25;;;3.50;;
26319;SDS011;14024;52.226;5.200;2023-09-19T10:49:49;13.43;;;3.60;;
26319;SDS011;14024;52.226;5.200;2023-09-19T10:52:15;15.23;;;3.42;;
26319;SDS011;14024;52.226;5.200;2023-09-19T10:54:49;17.35;;;3.75;;
26319;SDS011;14024;52.226;5.200;2023-09-19T10:57:20;15.23;;;3.47;;
26319;SDS011;14024;52.226;5.200;2023-09-19T11:00:05;15.05;;;3.10;;
26319;SDS011;14024;52.226;5.200;2023-09-19T11:05:59;15.68;;;3.10;;
26319;SDS011;14024;52.226;5.200;2023-09-19T11:09:15;13.25;;;2.58;;
26319;SDS011;14024;52.226;5.200;2023-09-19T11:30:52;15.00;;;3.42;;
26319;SDS011;14024;52.226;5.200;2023-09-19T11:33:26;12.73;;;2.85;;
26319;SDS011;14024;52.226;5.200;2023-09-19T11:46:30;13.88;;;2.65;;
26319;SDS011;14024;52.226;5.200;2023-09-19T11:49:04;9.50;;;2.08;;
26319;SDS011;14024;52.226;5.200;2023-09-19T11:51:41;11.90;;;2.40;;
26319;SDS011;14024;52.226;5.200;2023-09-19T11:54:12;9.70;;;2.05;;
26319;SDS011;14024;52.226;5.200;2023-09-19T11:56:44;10.85;;;2.22;;
26319;SDS011;14024;52.226;5.200;2023-09-19T11:59:11;8.27;;;1.90;;
26319;SDS011;14024;52.226;5.200;2023-09-19T12:01:50;10.23;;;2.67;;
26319;SDS011;14024;52.226;5.200;2023-09-19T12:07:08;11.65;;;2.70;;
26319;SDS011;14024;52.226;5.200;2023-09-19T12:09:42;9.55;;;2.47;;
26319;SDS011;14024;52.226;5.200;2023-09-19T12:12:19;16.15;;;2.47;;
26319;SDS011;14024;52.226;5.200;2023-09-19T12:14:48;10.68;;;2.55;;
26319;SDS011;14024;52.226;5.200;2023-09-19T12:17:17;8.32;;;1.85;;
26319;SDS011;14024;52.226;5.200;2023-09-19T12:19:51;10.80;;;2.35;;
26319;SDS011;14024;52.226;5.200;2023-09-19T12:22:17;7.38;;;2.10;;
26319;SDS011;14024;52.226;5.200;2023-09-19T12:24:44;9.32;;;2.25;;
26319;SDS011;14024;52.226;5.200;2023-09-19T12:27:10;7.25;;;2.35;;
26319;SDS011;14024;52.226;5.200;2023-09-19T12:29:46;12.27;;;2.53;;
26319;SDS011;14024;52.226;5.200;2023-09-19T12:32:33;9.82;;;1.92;;
26319;SDS011;14024;52.226;5.200;2023-09-19T12:35:00;7.72;;;2.20;;
26319;SDS011;14024;52.226;5.200;2023-09-19T12:37:32;11.55;;;2.22;;
26319;SDS011;14024;52.226;5.200;2023-09-19T12:40:05;17.95;;;2.63;;
26319;SDS011;14024;52.226;5.200;2023-09-19T12:42:43;5.90;;;1.98;;
26319;SDS011;14024;52.226;5.200;2023-09-19T12:45:09;6.70;;;1.83;;
26319;SDS011;14024;52.226;5.200;2023-09-19T12:47:38;8.80;;;2.30;;
26319;SDS011;14024;52.226;5.200;2023-09-19T12:50:15;8.65;;;2.17;;
26319;SDS011;14024;52.226;5.200;2023-09-19T12:52:41;18.10;;;2.10;;
26319;SDS011;14024;52.226;5.200;2023-09-19T12:55:28;5.82;;;1.90;;
26319;SDS011;14024;52.226;5.200;2023-09-19T12:57:58;8.73;;;2.50;;
26319;SDS011;14024;52.226;5.200;2023-09-19T13:00:52;7.38;;;2.53;;
26319;SDS011;14024;52.226;5.200;2023-09-19T13:03:25;10.38;;;2.28;;
26319;SDS011;14024;52.226;5.200;2023-09-19T13:06:02;9.32;;;2.05;;
26319;SDS011;14024;52.226;5.200;2023-09-19T13:08:31;7.22;;;1.58;;
26319;SDS011;14024;52.226;5.200;2023-09-19T13:13:42;4.40;;;1.60;;
26319;SDS011;14024;52.226;5.200;2023-09-19T13:16:19;14.55;;;2.90;;
26319;SDS011;14024;52.226;5.200;2023-09-19T13:18:51;9.25;;;2.15;;
26319;SDS011;14024;52.226;5.200;2023-09-19T13:21:29;8.45;;;1.67;;
26319;SDS011;14024;52.226;5.200;2023-09-19T13:26:51;4.95;;;2.08;;
26319;SDS011;14024;52.226;5.200;2023-09-19T13:29:28;9.88;;;1.90;;
26319;SDS011;14024;52.226;5.200;2023-09-19T13:31:53;9.98;;;2.13;;
26319;SDS011;14024;52.226;5.200;2023-09-19T13:34:19;7.38;;;2.08;;
26319;SDS011;14024;52.226;5.200;2023-09-19T13:36:48;5.90;;;2.13;;
26319;SDS011;14024;52.226;5.200;2023-09-19T13:39:14;7.07;;;1.90;;
26319;SDS011;14024;52.226;5.200;2023-09-19T13:41:41;6.85;;;2.00;;
26319;SDS011;14024;52.226;5.200;2023-09-19T13:44:08;6.85;;;2.08;;
26319;SDS011;14024;52.226;5.200;2023-09-19T13:46:36;6.88;;;1.90;;
26319;SDS011;14024;52.226;5.200;2023-09-19T13:49:02;8.00;;;1.98;;
26319;SDS011;14024;52.226;5.200;2023-09-19T13:51:29;6.05;;;2.55;;
26319;SDS011;14024;52.226;5.200;2023-09-19T13:53:55;6.22;;;2.10;;
26319;SDS011;14024;52.226;5.200;2023-09-19T13:56:21;10.50;;;2.03;;
26319;SDS011;14024;52.226;5.200;2023-09-19T13:58:47;6.22;;;2.20;;
26319;SDS011;14024;52.226;5.200;2023-09-19T14:01:12;9.57;;;2.30;;
26319;SDS011;14024;52.226;5.200;2023-09-19T14:03:38;8.55;;;2.55;;
26319;SDS011;14024;52.226;5.200;2023-09-19T14:06:04;9.32;;;2.38;;
26319;SDS011;14024;52.226;5.200;2023-09-19T14:08:30;5.90;;;2.10;;
26319;SDS011;14024;52.226;5.200;2023-09-19T14:10:56;8.30;;;1.90;;
26319;SDS011;14024;52.226;5.200;2023-09-19T14:13:21;6.80;;;2.13;;
26319;SDS011;14024;52.226;5.200;2023-09-19T14:15:46;10.55;;;2.50;;
26319;SDS011;14024;52.226;5.200;2023-09-19T14:18:12;16.17;;;3.03;;
26319;SDS011;14024;52.226;5.200;2023-09-19T14:20:40;10.18;;;2.35;;
26319;SDS011;14024;52.226;5.200;2023-09-19T14:23:07;5.93;;;2.13;;
26319;SDS011;14024;52.226;5.200;2023-09-19T14:25:34;7.10;;;2.72;;
26319;SDS011;14024;52.226;5.200;2023-09-19T14:28:00;12.90;;;2.88;;
26319;SDS011;14024;52.226;5.200;2023-09-19T14:30:26;10.38;;;3.03;;
26319;SDS011;14024;52.226;5.200;2023-09-19T14:32:52;10.60;;;2.10;;
26319;SDS011;14024;52.226;5.200;2023-09-19T14:35:18;10.50;;;3.00;;
26319;SDS011;14024;52.226;5.200;2023-09-19T14:37:45;10.43;;;3.03;;
26319;SDS011;14024;52.226;5.200;2023-09-19T14:40:12;11.27;;;2.83;;
26319;SDS011;14024;52.226;5.200;2023-09-19T14:42:40;8.90;;;2.70;;
26319;SDS011;14024;52.226;5.200;2023-09-19T14:45:06;9.35;;;2.65;;
26319;SDS011;14024;52.226;5.200;2023-09-19T14:47:32;12.02;;;3.13;;
26319;SDS011;14024;52.226;5.200;2023-09-19T14:50:02;8.38;;;2.95;;
26319;SDS011;14024;52.226;5.200;2023-09-19T14:52:31;15.65;;;3.47;;
26319;SDS011;14024;52.226;5.200;2023-09-19T14:54:57;6.50;;;2.85;;
26319;SDS011;14024;52.226;5.200;2023-09-19T14:57:23;14.23;;;3.75;;
26319;SDS011;14024;52.226;5.200;2023-09-19T14:59:49;12.88;;;3.38;;
26319;SDS011;14024;52.226;5.200;2023-09-19T15:02:16;10.65;;;3.60;;
26319;SDS011;14024;52.226;5.200;2023-09-19T15:04:43;15.57;;;3.83;;
26319;SDS011;14024;52.226;5.200;2023-09-19T15:07:12;11.82;;;3.90;;
26319;SDS011;14024;52.226;5.200;2023-09-19T15:09:40;12.07;;;3.92;;
26319;SDS011;14024;52.226;5.200;2023-09-19T15:12:11;10.10;;;3.08;;
26319;SDS011;14024;52.226;5.200;2023-09-19T15:14:40;11.93;;;4.07;;
26319;SDS011;14024;52.226;5.200;2023-09-19T15:17:10;8.82;;;3.13;;
26319;SDS011;14024;52.226;5.200;2023-09-19T15:19:35;11.27;;;3.55;;
26319;SDS011;14024;52.226;5.200;2023-09-19T15:22:03;13.73;;;2.95;;
26319;SDS011;14024;52.226;5.200;2023-09-19T15:24:30;17.23;;;3.75;;
26319;SDS011;14024;52.226;5.200;2023-09-19T15:26:57;10.25;;;2.97;;
26319;SDS011;14024;52.226;5.200;2023-09-19T15:29:22;10.45;;;3.90;;
26319;SDS011;14024;52.226;5.200;2023-09-19T15:31:49;12.90;;;3.40;;
26319;SDS011;14024;52.226;5.200;2023-09-19T15:34:15;17.83;;;4.43;;
26319;SDS011;14024;52.226;5.200;2023-09-19T15:36:42;12.00;;;3.80;;
26319;SDS011;14024;52.226;5.200;2023-09-19T15:39:09;10.65;;;3.47;;
26319;SDS011;14024;52.226;5.200;2023-09-19T15:41:40;15.27;;;3.78;;
26319;SDS011;14024;52.226;5.200;2023-09-19T15:44:14;11.38;;;3.40;;
26319;SDS011;14024;52.226;5.200;2023-09-19T15:46:41;8.95;;;3.35;;
26319;SDS011;14024;52.226;5.200;2023-09-19T15:49:07;11.45;;;4.18;;